• Join FlightAware (Why Join?)
  • Login
  • US Flag 
08:26AM EDT


 

Airport Tracker/Info


-or-


 

Live Flight TrackerFlight Track Log ✈ UAL3767 ✈ 10-May-2013 ✈ KBTV - KORD

Flight Track Log - Related Links

Times and Time Zones

All times are in EDT time to prevent confusion due to time zone crossing. See the UAL3767 flight status page for this flight to view local times or setup timezone preferences in your user account.

Time Position Orientation Groundspeed Altitude Reporting Facility
EDT Latitude Longitude Course Direction KTS MPH feet Rate Location/Type
06:11AM 44.4175 -73.1406 255° West 189 217 2,900  Level Boston Center
06:12AM 44.4003 -73.2275 255° West 213 245 4,400 1,980 Climbing Boston Center
06:13AM 44.3872 -73.3261 260° West 255 293 6,900 2,220 Climbing Boston Center
06:14AM 44.3487 -73.8262 259° West  Level FlightAware Approximate
06:14AM 44.3717 -73.4303 258° West 276 318 9,400  Level Boston Center
06:15AM 44.3279 -73.9624 255° West  Level FlightAware Approximate
06:15AM 44.3622 -73.5639 264° West 286 329 11,800  Level Boston Center
06:16AM 44.3023 -74.0970 255° West  Level FlightAware Approximate
06:16AM 44.3503 -73.6914 263° West 314 361 13,400  Level Boston Center
06:17AM 44.3381 -73.8508 264° West 339 390 15,400 1,680 Climbing Boston Center
06:18AM 44.3258 -73.9897 263° West 351 404 17,100 1,620 Climbing Boston Center
06:19AM 44.3161 -74.0997 263° West 357 411 18,700 1,620 Climbing Boston Center
06:20AM 44.3053 -74.2531 264° West 362 417 20,400 1,500 Climbing Boston Center
06:21AM 44.2906 -74.3978 262° West 373 429 21,800 1,440 Climbing Boston Center
06:22AM 44.2797 -74.5453 264° West 373 429 23,300 1,440 Climbing Boston Center
06:23AM 44.2664 -74.6897 263° West 378 435 24,700 1,320 Climbing Boston Center
06:24AM 44.2531 -74.8372 263° West 384 442 26,000 1,200 Climbing Boston Center
06:25AM 44.2394 -74.9903 263° West 389 448 27,200 1,020 Climbing Boston Center
06:26AM 44.2275 -75.1403 264° West 389 448 28,100 900 Climbing Boston Center
06:27AM 44.2133 -75.2933 263° West 389 448 29,000 840 Climbing Boston Center
06:28AM 44.1992 -75.4461 263° West 394 453 29,800 960 Climbing Boston Center
06:29AM 44.1825 -75.6044 262° West 404 465 31,000 1,080 Climbing Boston Center
06:30AM 44.1678 -75.7542 262° West 404 465 32,000 1,200 Climbing Boston Center
06:31AM 44.1528 -75.9039 262° West 404 465 33,500 1,080 Climbing Boston Center
06:32AM 44.1400 -76.0481 263° West 399 459 34,200 780 Climbing Boston Center
06:33AM 44.1250 -76.1917 262° West 387 445 35,100 840 Climbing Boston Center
06:34AM 44.1119 -76.3328 263° West 381 438 35,900 420 Climbing Boston Center
06:35AM 44.0967 -76.4764 262° West 381 438 36,000  Climbing Boston Center
06:36AM 44.0808 -76.6256 262° West 386 444 36,000  Level Boston Center
06:37AM 44.0500 -76.7500 251° West 390 449 36,000  Level Toronto Center
06:38AM 44.0333 -76.9167 262° West 380 437 36,000  Level Toronto Center
06:39AM 44.0167 -77.0667 261° West 380 437 36,000  Level Toronto Center
06:40AM 44.0000 -77.2167 261° West 380 437 36,000  Level Toronto Center
06:41AM 43.9667 -77.3667 253° West 390 449 36,000  Level Toronto Center
06:42AM 43.9667 -77.5000 270° West 390 449 36,000  Level Toronto Center
06:43AM 43.9500 -77.6333 260° West 390 449 36,000  Level Toronto Center
06:44AM 43.9333 -77.8000 262° West 390 449 36,000  Level Toronto Center
06:45AM 43.9167 -77.9500 261° West 390 449 36,000  Level Toronto Center
06:46AM 43.9000 -78.0833 260° West 390 449 36,000  Level Toronto Center
06:47AM 43.8667 -78.2500 255° West 390 449 36,000  Level Toronto Center
06:48AM 43.8500 -78.3833 260° West 390 449 36,000  Level Toronto Center
06:49AM 43.8500 -78.5167 270° West 390 449 36,000  Level Toronto Center
06:50AM 43.8333 -78.6833 262° West 390 449 36,000  Level Toronto Center
06:51AM 43.8167 -78.8167 260° West 390 449 36,000  Level Toronto Center
06:52AM 43.7833 -78.9833 255° West 390 449 36,000  Level Toronto Center
06:53AM 43.7667 -79.1167 260° West 390 449 36,000  Level Toronto Center
06:54AM 43.7500 -79.2667 261° West 390 449 36,000  Level Toronto Center
06:55AM 43.7333 -79.4333 262° West 380 437 36,000  Level Toronto Center
06:56AM 43.7167 -79.5667 260° West 390 449 36,000  Level Toronto Center
06:57AM 43.7000 -79.7000 260° West 390 449 36,000  Level Toronto Center
06:58AM 43.6667 -79.8333 251° West 390 449 36,000  Level Toronto Center
06:59AM 43.6500 -80.0000 262° West 390 449 36,000  Level Toronto Center
07:00AM 43.6333 -80.1333 260° West 390 449 36,000  Level Toronto Center
07:01AM 43.6167 -80.3000 262° West 390 449 36,000  Level Toronto Center
07:02AM 43.6000 -80.4333 260° West 390 449 36,000  Level Toronto Center
07:03AM 43.5667 -80.6000 255° West 390 449 36,000  Level Toronto Center
07:04AM 43.5500 -80.7333 260° West 390 449 36,000  Level Toronto Center
07:05AM 43.5167 -80.9000 255° West 400 460 36,000  Level Toronto Center
07:06AM 43.5000 -81.0333 260° West 400 460 36,000  Level Toronto Center
07:07AM 43.4833 -81.2000 262° West 400 460 36,000  Level Toronto Center
07:08AM 43.4500 -81.3333 251° West 400 460 36,000  Level Toronto Center
07:09AM 43.4333 -81.5000 262° West 410 472 36,000  Level Toronto Center
07:10AM 43.4167 -81.6500 261° West 410 472 36,000  Level Toronto Center
07:11AM 43.4000 -81.8167 262° West 410 472 36,000  Level Toronto Center
07:12AM 43.3500 -81.9500 243° Southwest 410 472 36,000  Level Toronto Center
07:13AM 43.3333 -82.1167 262° West 410 472 36,000  Level Toronto Center
07:14AM 43.3167 -82.2500 260° West 400 460 36,000  Level Toronto Center
07:15AM 43.3000 -82.4000 261° West 400 460 36,000  Level Toronto Center
07:16AM 43.2667 -82.5667 255° West 400 460 36,000  Level Toronto Center
07:17AM 43.2578 -82.6897 264° West 412 474 36,000  Level Cleveland Center
07:18AM 43.2239 -82.8311 252° West 407 468 36,000  Level Cleveland Center
07:19AM 43.1858 -82.9692 249° West 401 461 36,000  Level Cleveland Center
07:20AM 43.1475 -83.1044 249° West 390 449 36,000  Level Cleveland Center
07:21AM 43.1114 -83.2308 249° West 378 435 36,000  Level Cleveland Center
07:22AM 43.0772 -83.3544 249° West 364 419 36,000  Level Cleveland Center
07:23AM 43.0406 -83.4836 249° West 358 412 36,000 -60 Level Cleveland Center
07:24AM 43.0039 -83.6125 249° West 368 423 35,900 -660 Descending Cleveland Center
07:25AM 42.9694 -83.7386 250° West 368 423 34,700 -1,320 Descending Cleveland Center
07:26AM 42.9533 -83.8681 260° West 358 412 33,300 -1,380 Descending Cleveland Center
07:27AM 42.9433 -83.9897 264° West 353 406 32,000 -660 Descending Cleveland Center
07:28AM 42.9289 -84.1222 262° West 353 406 32,000  Level Cleveland Center
07:29AM 42.9164 -84.2606 263° West 358 412 32,000  Level Cleveland Center
07:31AM 42.8961 -84.4658 262° West 375 432 32,000  Level Chicago Center
07:32AM 42.8814 -84.6097 262° West 381 438 32,000  Level Chicago Center
07:33AM 42.8672 -84.7497 262° West 376 433 32,000  Level Chicago Center
07:34AM 42.8519 -84.8892 262° West 373 429 32,000  Level Chicago Center
07:35AM 42.8378 -85.0294 262° West 374 430 32,000 -360 Level Chicago Center
07:36AM 42.8222 -85.1681 261° West 371 427 31,300 -960 Descending Chicago Center
07:37AM 42.8083 -85.2969 262° West 349 402 30,100 -1,500 Descending Chicago Center
07:38AM 42.7928 -85.4381 262° West 319 367 28,300 -1,200 Descending Chicago Center
07:39AM 42.7761 -85.5597 259° West 323 372 27,700 -1,020 Descending Chicago Center
07:40AM 42.7533 -85.6789 255° West 325 374 26,300 -1,440 Descending Chicago Center
07:41AM 42.7319 -85.8019 257° West 329 379 24,800 -1,440 Descending Chicago Center
07:42AM 42.7089 -85.9281 256° West 338 389 23,400 -1,380 Descending Chicago Center
07:43AM 42.6861 -86.0514 256° West 337 388 22,000 -1,380 Descending Chicago Center
07:44AM 42.6636 -86.1728 256° West 332 382 20,600 -1,020 Descending Chicago Center
07:45AM 42.6417 -86.2942 256° West 330 380 20,000 -840 Descending Chicago Center
07:46AM 42.6178 -86.4125 255° West 327 376 19,000 -1,320 Descending Chicago Center
07:47AM 42.5953 -86.5300 255° West 321 369 17,400 -1,620 Descending Chicago Center
07:48AM 42.5731 -86.6478 256° West 323 372 15,700 -1,800 Descending Chicago Center
07:49AM 42.5458 -86.7867 255° West 320 368 13,800 -1,740 Descending Chicago Center
07:50AM 42.5158 -86.8928 249° West 307 353 12,200 -1,500 Descending Chicago Center
07:51AM 42.4867 -86.9969 249° West 298 343 10,800 -1,080 Descending Chicago Center
07:52AM 42.4567 -87.0997 248° West 295 339 10,000 -540 Descending Chicago Center
07:53AM 42.4283 -87.2033 250° West 296 341 9,800 -540 Descending Chicago Center
07:54AM 42.4033 -87.2986 250° West 278 320 9,000 -1,140 Descending Chicago Center
07:55AM 42.3728 -87.4069 249° West 264 304 7,500 -1,440 Descending Chicago Center
07:56AM 42.3244 -87.4703 224° Southwest 274 315 6,100 -1,320 Descending Chicago Center
07:57AM 42.2531 -87.4783 185° South 261 300 4,900 -1,080 Descending Chicago Center
07:58AM 42.1822 -87.4572 168° South 263 303 4,000 -480 Descending Chicago Center
07:59AM 42.1378 -87.3986 136° Southeast 247 284 4,000  Level Chicago Center
08:00AM 42.0869 -87.3583 150° Southeast 240 276 4,000  Level Chicago Center
08:01AM 42.0300 -87.3428 169° South 220 253 4,000  Level Chicago Center
08:02AM 42.0000 -87.3833 225° Southwest 157 181 4,000  Level Chicago TRACON
08:03AM 42.0000 -87.4333 270° West 155 178 4,000  Level Chicago TRACON
08:04AM 42.0000 -87.5000 270° West 152 175 4,000  Level Chicago TRACON
08:05AM 42.0000 -87.5500 270° West 151 174 4,000  Level Chicago TRACON
08:06AM 42.0000 -87.6000 270° West 155 178 4,000  Level Chicago TRACON
08:07AM 42.0000 -87.6667 270° West 159 183 4,000 -360 Level Chicago TRACON
08:08AM 42.0000 -87.7333 270° West 159 183 3,300 -840 Descending Chicago TRACON
08:09AM 42.0000 -87.7833 270° West 169 194 2,400 -900 Descending Chicago TRACON
08:10AM 42.0000 -87.8500 270° West 142 163 1,500 -900 Descending Chicago TRACON